FAHS/HDS METAR and TAF weather

Enter ICAO airport designator
Station Type Date Time Source
FAHS METAR 2019/04/24 21:00 UTC NOAA

FAHS 242100Z AUTO 19003KT //// // ////// 21/16 Q1019


Station Type Date Time Source
FAHS Decoded METAR 2019/04/24 21:00 UTC NOAA

Hoedspruit, South Africa (FAHS) 24-22S 031-02E 500M
Apr 24, 2019 - 05:00 PM EDT / 2019.04.24 2100 UTC
Wind: from the S (190 degrees) at 3 MPH (3 KT):0
Temperature: 69 F (21 C)
Dew Point: 60 F (16 C)
Relative Humidity: 73%
Pressure (altimeter): 30.09 in. Hg (1019 hPa)
ob: FAHS 242100Z AUTO 19003KT //// // ////// 21/16 Q1019
cycle: 21

Station Type Date Time Source
FAHS TAF 2017/05/23 04:01 UTC NOAA

TAF FAHS 230300Z 2304/2315 VRB02KT CAVOK TX29/2312ZTN12/2304Z

Example: see airport list